createdAt,value
2023-04-15T00:02:20.311Z,76.51
2023-04-15T00:04:48.125Z,76.07
2023-04-15T00:07:15.599Z,77.03
2023-04-15T00:09:42.470Z,77.88
2023-04-15T00:12:09.287Z,77.96
2023-04-15T00:14:36.153Z,78.14
2023-04-15T00:17:03.215Z,77.38
2023-04-15T00:19:30.999Z,76.36
2023-04-15T00:21:58.282Z,77.03
2023-04-15T00:24:24.965Z,75.98
2023-04-15T00:26:51.664Z,76.56
2023-04-15T00:29:21.258Z,75.42
2023-04-15T00:31:48.021Z,76.07
2023-04-15T00:34:15.266Z,76.17
2023-04-15T00:36:42.976Z,76.46
2023-04-15T00:39:09.701Z,76.56
2023-04-15T00:41:36.443Z,78.33
2023-04-15T00:44:03.453Z,77.60
2023-04-15T00:46:30.815Z,76.76
2023-04-15T00:48:57.698Z,77.79
2023-04-15T00:51:24.484Z,79.32
2023-04-15T00:53:51.618Z,80.16
2023-04-15T00:56:19.408Z,80.14
2023-04-15T00:58:46.510Z,79.78
2023-04-15T01:01:13.611Z,80.12
2023-04-15T01:03:40.954Z,80.01
2023-04-15T01:06:07.890Z,79.30
2023-04-15T01:08:34.729Z,79.29
2023-04-15T01:11:01.818Z,79.19
2023-04-15T01:13:28.868Z,78.80
2023-04-15T01:15:57.306Z,79.09
2023-04-15T01:18:24.033Z,78.45
2023-04-15T01:20:50.785Z,77.92
2023-04-15T01:23:17.886Z,77.49
2023-04-15T01:25:44.998Z,77.62
2023-04-15T01:28:11.692Z,76.31
2023-04-15T01:30:38.393Z,75.48
2023-04-15T01:33:05.637Z,76.22
2023-04-15T01:35:32.374Z,76.33
2023-04-15T01:38:06.985Z,76.64
2023-04-15T01:40:34.254Z,75.96
2023-04-15T01:43:02.654Z,76.14
2023-04-15T01:45:29.907Z,77.62
2023-04-15T01:47:56.680Z,78.22
2023-04-15T01:50:24.417Z,79.12
2023-04-15T01:52:51.123Z,80.29
2023-04-15T01:55:18.383Z,79.55
2023-04-15T01:57:45.103Z,79.60
2023-04-15T02:00:12.168Z,80.47
2023-04-15T02:02:40.126Z,80.15
2023-04-15T02:05:07.232Z,80.35
2023-04-15T02:07:33.921Z,81.90
2023-04-15T02:10:01.630Z,80.74
2023-04-15T02:12:28.458Z,80.72
2023-04-15T02:14:55.205Z,79.93
2023-04-15T02:17:22.228Z,77.98
2023-04-15T02:19:49.754Z,78.77
2023-04-15T02:22:16.867Z,77.50
2023-04-15T02:24:43.938Z,78.29
2023-04-15T02:27:10.792Z,76.74
2023-04-15T02:29:37.798Z,77.86
2023-04-15T02:32:05.406Z,78.96
2023-04-15T02:34:32.368Z,77.89
2023-04-15T02:36:59.607Z,78.26
2023-04-15T02:39:26.629Z,78.30
2023-04-15T02:41:53.867Z,76.87
2023-04-15T02:44:20.728Z,74.93
2023-04-15T02:46:47.700Z,76.37
2023-04-15T02:49:15.413Z,76.00
2023-04-15T02:51:42.136Z,77.53
2023-04-15T02:54:11.717Z,77.97
2023-04-15T02:56:38.464Z,78.09
2023-04-15T02:59:05.321Z,78.64
2023-04-15T03:01:32.630Z,79.51
2023-04-15T03:03:59.505Z,79.60
2023-04-15T03:06:26.711Z,79.39
2023-04-15T03:08:55.652Z,78.30
2023-04-15T03:11:22.331Z,79.87
2023-04-15T03:13:49.045Z,77.79
2023-04-15T03:16:16.268Z,77.59
2023-04-15T03:18:43.209Z,78.51
2023-04-15T03:21:10.040Z,76.78
2023-04-15T03:23:37.268Z,78.44
2023-04-15T03:26:04.521Z,78.94
2023-04-15T03:28:33.198Z,78.76
2023-04-15T03:31:00.650Z,77.80
2023-04-15T03:33:27.407Z,79.49
2023-04-15T03:35:54.510Z,80.39
2023-04-15T03:38:21.313Z,80.67
2023-04-15T03:40:48.121Z,80.24
2023-04-15T03:43:15.159Z,80.43
2023-04-15T03:45:42.342Z,81.62
2023-04-15T03:48:16.635Z,81.58
2023-04-15T03:50:47.633Z,80.85
2023-04-15T03:53:14.912Z,79.94
2023-04-15T03:55:41.660Z,79.44
2023-04-15T03:58:08.388Z,78.75
2023-04-15T04:00:35.462Z,79.46
2023-04-15T04:03:04.392Z,79.33
2023-04-15T04:05:31.833Z,79.72
2023-04-15T04:07:58.782Z,79.73
2023-04-15T04:10:26.284Z,80.05
2023-04-15T04:12:56.441Z,79.79
2023-04-15T04:15:26.027Z,80.26
2023-04-15T04:17:53.133Z,79.29
2023-04-15T04:20:19.898Z,79.27
2023-04-15T04:22:46.977Z,79.36
2023-04-15T04:25:13.659Z,79.39
2023-04-15T04:27:40.340Z,78.10
2023-04-15T04:30:07.678Z,79.58
2023-04-15T04:32:34.780Z,80.52
2023-04-15T04:35:01.539Z,80.45
2023-04-15T04:37:28.285Z,80.76
2023-04-15T04:39:55.078Z,81.16
2023-04-15T04:42:22.105Z,80.31
2023-04-15T04:44:49.224Z,80.64
2023-04-15T04:47:16.050Z,79.50
2023-04-15T04:49:42.812Z,80.05
2023-04-15T04:52:09.507Z,78.46
2023-04-15T04:54:36.187Z,78.73
2023-04-15T04:57:02.897Z,78.26
2023-04-15T04:59:29.577Z,75.41
2023-04-15T05:01:56.413Z,74.00
2023-04-15T05:04:23.092Z,75.53
2023-04-15T05:06:49.965Z,76.25
2023-04-15T05:09:16.685Z,76.48
2023-04-15T05:11:43.717Z,75.95
2023-04-15T05:14:10.436Z,75.36
2023-04-15T05:16:37.469Z,77.50
2023-04-15T05:19:04.177Z,76.13
2023-04-15T05:21:31.286Z,74.61
2023-04-15T05:23:58.199Z,74.04
2023-04-15T05:26:26.407Z,73.49
2023-04-15T05:28:53.149Z,72.98
2023-04-15T05:31:20.504Z,73.37
2023-04-15T05:33:50.013Z,72.07
2023-04-15T05:36:16.905Z,73.50
2023-04-15T05:38:43.633Z,75.51
2023-04-15T05:41:10.488Z,74.06
2023-04-15T05:43:38.731Z,74.78
2023-04-15T05:46:06.082Z,75.60
2023-04-15T05:48:33.221Z,77.32
2023-04-15T05:51:00.633Z,74.49
2023-04-15T05:53:27.854Z,74.86
2023-04-15T05:55:54.897Z,73.12
2023-04-15T05:58:21.690Z,73.81
2023-04-15T06:00:49.418Z,73.47
2023-04-15T06:03:16.535Z,72.77
2023-04-15T06:05:43.883Z,76.58
2023-04-15T06:08:13.507Z,77.52
2023-04-15T06:10:40.579Z,79.03
2023-04-15T06:13:08.026Z,79.21
2023-04-15T06:15:35.314Z,81.33
2023-04-15T06:18:03.523Z,81.83
2023-04-15T06:20:30.266Z,80.69
2023-04-15T06:22:57.901Z,83.13
2023-04-15T06:25:25.169Z,84.05
2023-04-15T06:27:53.134Z,83.37
2023-04-15T06:30:19.912Z,84.60
2023-04-15T06:32:46.742Z,85.73
2023-04-15T06:35:13.928Z,86.38
2023-04-15T06:37:40.820Z,86.61
2023-04-15T06:40:10.624Z,87.91
2023-04-15T06:42:38.185Z,88.82
2023-04-15T06:45:08.007Z,88.99
2023-04-15T06:47:35.477Z,88.93
2023-04-15T06:50:02.452Z,88.59
2023-04-15T06:52:48.468Z,87.72
2023-04-15T06:55:15.327Z,87.69
2023-04-15T06:57:42.474Z,86.24
2023-04-15T07:00:11.596Z,86.76
2023-04-15T07:02:38.528Z,87.00
2023-04-15T07:05:06.378Z,86.59
2023-04-15T07:07:33.534Z,86.38
2023-04-15T07:10:03.365Z,84.36
2023-04-15T07:12:45.749Z,83.99
2023-04-15T07:15:14.207Z,85.86
2023-04-15T07:17:42.210Z,86.22
2023-04-15T07:20:09.217Z,85.62
2023-04-15T07:22:36.229Z,85.06
2023-04-15T07:25:03.019Z,84.84
2023-04-15T07:27:29.883Z,85.02
2023-04-15T07:29:56.771Z,84.81
2023-04-15T07:32:23.537Z,82.94
2023-04-15T07:34:50.703Z,83.82
2023-04-15T07:40:54.702Z,84.52
2023-04-15T07:43:21.522Z,84.82
2023-04-15T07:45:49.079Z,85.29
2023-04-15T07:48:16.278Z,85.10
2023-04-15T07:50:43.340Z,83.41
2023-04-15T07:53:10.031Z,84.72
2023-04-15T07:55:37.066Z,83.96
2023-04-15T07:58:46.046Z,85.85
2023-04-15T08:01:14.129Z,84.54
2023-04-15T08:03:41.317Z,83.19
2023-04-15T08:06:08.675Z,83.57
2023-04-15T08:08:35.451Z,84.84
2023-04-15T08:11:02.225Z,84.12
2023-04-15T08:13:29.004Z,83.15
2023-04-15T08:16:21.401Z,83.91
2023-04-15T08:18:48.660Z,83.52
2023-04-15T08:21:16.196Z,82.42
2023-04-15T08:23:43.461Z,82.34
2023-04-15T08:26:10.229Z,82.94
2023-04-15T08:28:38.692Z,81.82
2023-04-15T08:31:05.548Z,82.58
2023-04-15T08:37:27.104Z,82.95
2023-04-15T08:39:54.286Z,82.53
2023-04-15T08:42:25.229Z,81.98
2023-04-15T08:44:52.500Z,81.32
2023-04-15T08:47:20.858Z,80.71
2023-04-15T08:49:47.653Z,80.94
2023-04-15T08:52:24.412Z,80.44
2023-04-15T08:54:51.165Z,79.33
2023-04-15T08:57:17.899Z,78.42
2023-04-15T08:59:44.773Z,79.51
2023-04-15T09:02:12.059Z,79.23
2023-04-15T09:04:39.025Z,78.53
2023-04-15T09:10:54.445Z,78.63
2023-04-15T09:13:22.709Z,78.12
2023-04-15T09:15:49.776Z,79.74
2023-04-15T09:18:27.793Z,79.50
2023-04-15T09:20:54.970Z,79.05
2023-04-15T09:23:21.957Z,79.72
2023-04-15T09:25:49.152Z,80.98
2023-04-15T09:28:23.971Z,80.84
2023-04-15T09:30:52.957Z,80.10
2023-04-15T09:33:19.707Z,81.82
2023-04-15T09:35:56.886Z,80.55
2023-04-15T09:38:23.675Z,80.72
2023-04-15T09:40:50.484Z,78.97
2023-04-15T09:43:17.681Z,79.91
2023-04-15T09:45:49.524Z,79.18
2023-04-15T09:48:26.181Z,78.21
2023-04-15T09:50:52.885Z,78.73
2023-04-15T09:53:20.683Z,77.87
2023-04-15T09:55:52.845Z,78.69
2023-04-15T09:58:31.809Z,76.73
2023-04-15T10:00:59.632Z,77.15
2023-04-15T10:03:34.773Z,76.30
2023-04-15T10:06:04.676Z,75.08
2023-04-15T10:08:32.893Z,74.60
2023-04-15T10:11:00.492Z,72.94
2023-04-15T10:13:29.427Z,72.46
2023-04-15T10:15:59.326Z,73.78
2023-04-15T10:18:27.565Z,76.60
2023-04-15T10:20:54.752Z,75.10
2023-04-15T10:23:23.089Z,75.71
2023-04-15T10:25:50.653Z,75.32
2023-04-15T10:28:19.061Z,76.04
2023-04-15T10:30:46.326Z,75.14
2023-04-15T10:33:13.415Z,74.73
2023-04-15T10:35:53.269Z,74.45
2023-04-15T10:38:38.720Z,76.33
2023-04-15T10:41:25.136Z,74.46
2023-04-15T10:43:56.105Z,75.93
2023-04-15T10:46:40.295Z,77.25
2023-04-15T10:49:14.508Z,78.54
2023-04-15T10:51:43.229Z,78.89
2023-04-15T10:54:38.858Z,78.97
2023-04-15T10:57:05.637Z,78.14
2023-04-15T10:59:35.712Z,77.89
2023-04-15T11:02:04.003Z,79.99
2023-04-15T11:04:53.479Z,79.67
2023-04-15T11:07:52.387Z,78.91
2023-04-15T11:10:51.163Z,78.50
2023-04-15T11:13:21.247Z,76.88
2023-04-15T11:16:01.641Z,74.35
2023-04-15T11:18:43.338Z,75.69
2023-04-15T11:21:11.520Z,76.46
2023-04-15T11:27:25.069Z,74.82
2023-04-15T11:29:51.926Z,76.95
2023-04-15T11:32:18.693Z,75.37
2023-04-15T11:34:48.220Z,75.22
2023-04-15T11:37:15.419Z,77.08
2023-04-15T11:39:42.183Z,77.18
2023-04-15T11:42:18.210Z,78.06
2023-04-15T11:44:44.994Z,77.62
2023-04-15T11:47:24.658Z,77.92
2023-04-15T11:49:51.363Z,77.62
2023-04-15T11:52:18.483Z,76.98
2023-04-15T11:54:45.160Z,75.65
2023-04-15T11:57:12.388Z,75.55
2023-04-15T11:59:45.438Z,73.68
2023-04-15T12:02:14.374Z,72.00
2023-04-15T12:04:41.428Z,72.08
2023-04-15T12:07:08.630Z,70.06
2023-04-15T12:09:37.894Z,70.27
2023-04-15T12:12:04.604Z,69.07
2023-04-15T12:14:31.766Z,73.07
2023-04-15T12:17:05.720Z,72.41
2023-04-15T12:19:37.046Z,72.38
2023-04-15T12:22:14.427Z,70.01
2023-04-15T12:24:48.740Z,71.70
2023-04-15T12:27:21.598Z,71.92
2023-04-15T12:29:51.221Z,73.36
2023-04-15T12:32:18.117Z,73.51
2023-04-15T12:34:49.697Z,72.16
2023-04-15T12:37:16.440Z,73.03
2023-04-15T12:39:47.706Z,73.70
2023-04-15T12:42:16.073Z,73.13
2023-04-15T12:44:43.070Z,71.55
2023-04-15T12:47:10.219Z,70.58
2023-04-15T12:49:38.917Z,71.43
2023-04-15T12:52:05.841Z,71.66
2023-04-15T12:54:32.595Z,70.94
2023-04-15T12:56:59.575Z,71.51
2023-04-15T12:59:26.294Z,71.46
2023-04-15T13:01:53.236Z,70.83
2023-04-15T13:04:20.595Z,71.07
2023-04-15T13:06:47.617Z,69.40
2023-04-15T13:09:14.451Z,70.83
2023-04-15T13:11:41.382Z,67.49
2023-04-15T13:14:09.118Z,69.54
2023-04-15T13:16:35.843Z,70.01
2023-04-15T13:19:03.605Z,70.30
2023-04-15T13:21:30.519Z,68.89
2023-04-15T13:23:57.244Z,66.53
2023-04-15T13:26:23.984Z,66.79
2023-04-15T13:28:50.740Z,66.61
2023-04-15T13:31:19.283Z,67.65
2023-04-15T13:33:46.217Z,70.36
2023-04-15T13:36:13.161Z,68.83
2023-04-15T13:38:39.839Z,66.91
2023-04-15T13:41:06.584Z,69.95
2023-04-15T13:43:33.245Z,69.98
2023-04-15T13:46:00.330Z,68.57
2023-04-15T13:48:27.129Z,66.62
2023-04-15T13:50:53.926Z,66.49
2023-04-15T13:53:20.756Z,65.96
2023-04-15T13:56:03.817Z,68.40
2023-04-15T13:58:30.496Z,68.25
2023-04-15T14:00:58.247Z,68.26
2023-04-15T14:03:25.106Z,71.27
2023-04-15T14:05:51.954Z,71.81
2023-04-15T14:08:23.035Z,69.45
2023-04-15T14:10:50.628Z,68.52
2023-04-15T14:13:17.491Z,68.96
2023-04-15T14:15:46.303Z,69.56
2023-04-15T14:18:14.016Z,69.97
2023-04-15T14:20:40.742Z,71.64
2023-04-15T14:23:07.814Z,72.09
2023-04-15T14:25:34.538Z,70.25
2023-04-15T14:28:02.312Z,68.14
2023-04-15T14:30:29.144Z,67.47
2023-04-15T14:32:56.051Z,66.25
2023-04-15T14:35:22.930Z,67.33
2023-04-15T14:37:49.803Z,67.03
2023-04-15T14:40:16.489Z,68.07
2023-04-15T14:43:22.157Z,65.15
2023-04-15T14:45:51.804Z,67.00
2023-04-15T14:48:18.646Z,65.34
2023-04-15T14:50:45.415Z,64.29
2023-04-15T14:53:12.542Z,64.76
2023-04-15T14:55:39.334Z,64.87
2023-04-15T14:58:06.737Z,67.71
2023-04-15T15:00:36.888Z,67.00
2023-04-15T15:03:03.677Z,66.04
2023-04-15T15:05:30.561Z,64.98
2023-04-15T15:07:57.375Z,66.14
2023-04-15T15:10:35.810Z,66.19
2023-04-15T15:13:11.627Z,67.01
2023-04-15T15:15:38.599Z,68.66
2023-04-15T15:18:05.759Z,67.01
2023-04-15T15:20:32.700Z,67.71
2023-04-15T15:23:03.102Z,68.84
2023-04-15T15:25:29.883Z,67.79
2023-04-15T15:27:58.741Z,67.58
2023-04-15T15:30:27.804Z,67.68
2023-04-15T15:32:54.560Z,68.12
2023-04-15T15:35:21.298Z,68.40
2023-04-15T15:37:48.060Z,69.41
2023-04-15T15:40:16.444Z,68.35
2023-04-15T15:43:03.960Z,66.93
2023-04-15T15:45:31.201Z,68.03
2023-04-15T15:48:06.140Z,67.14
2023-04-15T15:50:34.190Z,68.64
2023-04-15T15:53:00.888Z,68.83
2023-04-15T15:55:31.014Z,73.17
2023-04-15T15:57:58.147Z,73.53
2023-04-15T16:00:26.254Z,72.12
2023-04-15T16:03:06.847Z,71.91
2023-04-15T16:05:37.053Z,70.51
2023-04-15T16:08:05.164Z,69.93
2023-04-15T16:10:32.399Z,71.49
2023-04-15T16:12:59.126Z,70.32
2023-04-15T16:15:26.918Z,72.63
2023-04-15T16:17:53.742Z,70.72
2023-04-15T16:20:20.593Z,70.90
2023-04-15T16:22:47.494Z,70.39
2023-04-15T16:25:15.458Z,70.16
2023-04-15T16:27:57.213Z,70.44
2023-04-15T16:33:18.005Z,75.60
2023-04-15T16:35:45.348Z,76.91
2023-04-15T16:38:12.368Z,74.98
2023-04-15T16:40:39.131Z,74.74
2023-04-15T16:43:06.225Z,75.13
2023-04-15T16:45:33.036Z,77.01
2023-04-15T16:48:00.221Z,77.04
2023-04-15T16:50:27.040Z,76.07
2023-04-15T16:52:54.188Z,77.76
2023-04-15T16:55:20.946Z,77.74
2023-04-15T16:58:02.045Z,79.85
2023-04-15T17:00:33.907Z,82.31
2023-04-15T17:03:01.281Z,81.77
2023-04-15T17:05:28.445Z,78.70
2023-04-15T17:07:55.458Z,76.79
2023-04-15T17:10:22.402Z,74.73
2023-04-15T17:16:30.077Z,70.99
2023-04-15T17:18:56.900Z,71.65
2023-04-15T17:21:23.712Z,70.16
2023-04-15T17:23:59.559Z,68.95
2023-04-15T17:26:26.344Z,69.94
2023-04-15T17:28:53.138Z,72.89
2023-04-15T17:31:21.596Z,71.09
2023-04-15T17:34:13.881Z,70.02
2023-04-15T17:36:42.089Z,69.75
2023-04-15T17:39:08.845Z,70.26
2023-04-15T17:41:35.573Z,71.67
2023-04-15T17:44:02.346Z,71.01
2023-04-15T17:46:30.009Z,75.13
2023-04-15T17:48:57.195Z,75.77
2023-04-15T17:51:23.946Z,73.31
2023-04-15T17:53:50.617Z,73.60
2023-04-15T17:56:17.440Z,72.18
2023-04-15T17:58:44.122Z,71.19
2023-04-15T18:01:11.297Z,70.55
2023-04-15T18:07:03.083Z,68.33
2023-04-15T18:09:30.477Z,68.12
2023-04-15T18:12:04.415Z,68.33
2023-04-15T18:14:34.763Z,68.86
2023-04-15T18:17:02.413Z,70.13
2023-04-15T18:19:30.025Z,68.78
2023-04-15T18:21:56.904Z,69.26
2023-04-15T18:24:23.603Z,74.18
2023-04-15T18:26:50.346Z,75.18
2023-04-15T18:29:17.119Z,75.55
2023-04-15T18:31:44.052Z,72.45
2023-04-15T18:34:12.065Z,70.54
2023-04-15T18:36:38.853Z,70.21
2023-04-15T18:39:06.284Z,69.75
2023-04-15T18:41:33.246Z,73.92
2023-04-15T18:44:00.057Z,76.54
2023-04-15T18:46:27.818Z,79.53
2023-04-15T18:48:54.678Z,81.54
2023-04-15T18:51:21.503Z,82.20
2023-04-15T18:53:48.289Z,80.84
2023-04-15T18:56:15.048Z,79.51
2023-04-15T18:59:08.936Z,76.44
2023-04-15T19:01:28.829Z,77.55
2023-04-15T19:03:56.024Z,80.01
2023-04-15T19:06:22.971Z,82.38
2023-04-15T19:08:50.085Z,84.21
2023-04-15T19:11:20.200Z,83.91
2023-04-15T19:13:47.671Z,82.00
2023-04-15T19:16:14.441Z,79.10
2023-04-15T19:18:42.244Z,79.25
2023-04-15T19:21:09.015Z,82.06
2023-04-15T19:23:35.711Z,80.93
2023-04-15T19:26:02.766Z,77.89
2023-04-15T19:28:32.585Z,81.50
2023-04-15T19:31:00.815Z,83.27
2023-04-15T19:33:28.600Z,84.99
2023-04-15T19:35:55.336Z,84.69
2023-04-15T19:38:22.119Z,86.00
2023-04-15T19:40:50.059Z,86.88
2023-04-15T19:43:17.143Z,86.67
2023-04-15T19:45:44.404Z,86.21
2023-04-15T19:48:11.143Z,86.14
2023-04-15T19:50:38.022Z,86.60
2023-04-15T19:53:06.093Z,86.72
2023-04-15T19:55:33.190Z,85.98
2023-04-15T19:58:00.689Z,85.46
2023-04-15T20:00:28.818Z,82.96
2023-04-15T20:02:55.864Z,85.21
2023-04-15T20:05:23.176Z,86.49
2023-04-15T20:07:51.035Z,88.25
2023-04-15T20:10:18.763Z,87.87
2023-04-15T20:12:51.427Z,86.73
2023-04-15T20:15:20.015Z,83.58
2023-04-15T20:17:46.954Z,84.58
2023-04-15T20:20:13.731Z,87.07
2023-04-15T20:22:40.905Z,86.99
2023-04-15T20:25:07.869Z,86.87
2023-04-15T20:27:34.594Z,88.22
2023-04-15T20:30:01.982Z,88.20
2023-04-15T20:32:28.802Z,88.34
2023-04-15T20:34:55.841Z,88.94
2023-04-15T20:37:22.585Z,89.37
2023-04-15T20:39:49.471Z,89.56
2023-04-15T20:42:16.324Z,89.65
2023-04-15T20:44:43.034Z,90.24
2023-04-15T20:47:09.863Z,90.45
2023-04-15T20:49:37.032Z,90.65
2023-04-15T20:52:04.465Z,90.62
2023-04-15T20:54:31.310Z,91.23
2023-04-15T20:56:58.039Z,91.08
2023-04-15T20:59:25.173Z,91.53
2023-04-15T21:01:51.978Z,91.78
2023-04-15T21:04:18.785Z,92.16
2023-04-15T21:06:46.205Z,91.80
2023-04-15T21:09:12.981Z,91.60
2023-04-15T21:11:57.556Z,91.26
2023-04-15T21:14:26.825Z,91.30
2023-04-15T21:16:53.536Z,91.04
2023-04-15T21:19:20.227Z,91.38
2023-04-15T21:21:48.043Z,91.67
2023-04-15T21:24:14.738Z,91.76
2023-04-15T21:26:58.935Z,91.36
2023-04-15T21:29:25.949Z,90.63
2023-04-15T21:31:52.802Z,90.19
2023-04-15T21:34:19.967Z,89.75
2023-04-15T21:36:47.104Z,89.62
2023-04-15T21:39:13.802Z,88.33
2023-04-15T21:41:40.913Z,88.52
2023-04-15T21:44:07.611Z,88.69
2023-04-15T21:46:35.533Z,88.19
2023-04-15T21:49:03.265Z,88.57
2023-04-15T21:51:30.194Z,88.63
2023-04-15T21:53:56.916Z,88.70
2023-04-15T21:56:23.718Z,88.04
2023-04-15T21:58:50.447Z,86.76
2023-04-15T22:01:17.776Z,87.33
2023-04-15T22:03:44.848Z,87.27
2023-04-15T22:06:11.726Z,87.54
2023-04-15T22:08:52.398Z,86.14
2023-04-15T22:11:22.634Z,87.18
2023-04-15T22:13:49.461Z,86.92
2023-04-15T22:16:16.301Z,87.42
2023-04-15T22:18:43.030Z,87.36
2023-04-15T22:21:09.912Z,85.86
2023-04-15T22:23:36.723Z,87.02
2023-04-15T22:26:04.568Z,85.98
2023-04-15T22:28:31.301Z,88.14
2023-04-15T22:30:58.085Z,87.99
2023-04-15T22:33:25.159Z,87.42
2023-04-15T22:35:51.935Z,88.25
2023-04-15T22:38:18.825Z,88.75
2023-04-15T22:40:48.521Z,87.87
2023-04-15T22:43:15.196Z,87.38
2023-04-15T22:45:47.964Z,88.37
2023-04-15T22:48:15.264Z,87.05
2023-04-15T22:50:42.582Z,86.55
2023-04-15T22:53:09.287Z,87.58
2023-04-15T22:55:36.377Z,86.74
2023-04-15T22:58:06.518Z,82.90
2023-04-15T23:00:33.269Z,80.81
2023-04-15T23:03:01.255Z,79.05
2023-04-15T23:05:28.265Z,83.68
2023-04-15T23:07:55.400Z,85.72
2023-04-15T23:10:22.122Z,84.55
2023-04-15T23:12:48.878Z,84.15
2023-04-15T23:15:15.623Z,87.45
2023-04-15T23:17:42.536Z,86.39
2023-04-15T23:20:09.676Z,87.57
2023-04-15T23:22:36.528Z,84.74
2023-04-15T23:25:06.515Z,83.90
2023-04-15T23:27:33.399Z,87.63
2023-04-15T23:30:00.246Z,89.41
2023-04-15T23:32:27.006Z,89.47
2023-04-15T23:34:53.899Z,89.38
2023-04-15T23:37:20.757Z,88.53
2023-04-15T23:39:47.609Z,89.34
2023-04-15T23:42:14.300Z,89.64
2023-04-15T23:44:41.021Z,89.30
2023-04-15T23:47:07.779Z,88.83
2023-04-15T23:49:34.501Z,88.79
2023-04-15T23:55:48.834Z,88.35
2023-04-15T23:58:17.094Z,89.93
